createdAt,value
2023-01-02T00:01:41.632Z,6.03
2023-01-02T00:04:10.082Z,4.50
2023-01-02T00:06:40.032Z,9.17
2023-01-02T00:09:09.231Z,6.70
2023-01-02T00:11:37.592Z,5.20
2023-01-02T00:14:06.021Z,7.77
2023-01-02T00:16:34.246Z,5.17
2023-01-02T00:19:02.489Z,5.57
2023-01-02T00:21:30.894Z,6.93
2023-01-02T00:24:00.462Z,6.87
2023-01-02T00:26:29.033Z,6.20
2023-01-02T00:28:57.277Z,6.23
2023-01-02T00:31:25.873Z,5.73
2023-01-02T00:33:54.162Z,6.07
2023-01-02T00:36:22.448Z,6.20
2023-01-02T00:38:50.622Z,5.17
2023-01-02T00:41:21.625Z,4.60
2023-01-02T00:43:49.928Z,5.30
2023-01-02T00:46:18.805Z,5.87
2023-01-02T00:48:47.096Z,6.80
2023-01-02T00:51:16.251Z,6.50
2023-01-02T00:53:44.464Z,4.07
2023-01-02T00:56:13.041Z,6.07
2023-01-02T00:58:44.581Z,5.03
2023-01-02T01:01:13.010Z,7.70
2023-01-02T01:03:43.466Z,6.60
2023-01-02T01:06:12.247Z,5.37
2023-01-02T01:08:41.475Z,4.73
2023-01-02T01:11:11.063Z,7.13
2023-01-02T01:13:39.466Z,7.23
2023-01-02T01:16:10.817Z,9.60
2023-01-02T01:18:39.696Z,6.60
2023-01-02T01:21:09.579Z,5.63
2023-01-02T01:23:37.795Z,6.20
2023-01-02T01:26:07.821Z,5.60
2023-01-02T01:28:36.696Z,5.93
2023-01-02T01:31:05.795Z,6.57
2023-01-02T01:33:35.552Z,5.73
2023-01-02T01:36:04.419Z,6.73
2023-01-02T01:38:33.611Z,6.40
2023-01-02T01:41:02.229Z,4.17
2023-01-02T01:43:38.531Z,5.93
2023-01-02T01:46:11.052Z,6.17
2023-01-02T01:48:40.730Z,6.70
2023-01-02T01:51:09.338Z,6.27
2023-01-02T01:53:38.337Z,5.87
2023-01-02T01:56:09.684Z,5.23
2023-01-02T01:58:43.206Z,4.70
2023-01-02T02:01:13.840Z,5.87
2023-01-02T02:03:46.782Z,6.80
2023-01-02T02:06:15.056Z,5.47
2023-01-02T02:08:49.365Z,5.63
2023-01-02T02:11:19.160Z,10.53
2023-01-02T02:13:48.515Z,7.00
2023-01-02T02:16:27.965Z,5.97
2023-01-02T02:19:30.148Z,6.93
2023-01-02T02:22:19.727Z,6.87
2023-01-02T02:25:16.682Z,7.03
2023-01-02T02:28:16.425Z,8.70
2023-01-02T02:30:54.131Z,5.63
2023-01-02T02:33:34.567Z,7.10
2023-01-02T02:36:10.617Z,6.47
2023-01-02T02:38:55.909Z,5.57
2023-01-02T02:41:34.393Z,8.50
2023-01-02T02:44:16.011Z,5.40
2023-01-02T02:46:53.092Z,8.67
2023-01-02T02:49:33.827Z,6.03
2023-01-02T02:52:08.303Z,5.23
2023-01-02T02:54:41.286Z,8.10
2023-01-02T02:57:11.027Z,5.47
2023-01-02T02:59:40.749Z,5.47
2023-01-02T03:02:14.887Z,7.67
2023-01-02T03:04:44.418Z,8.63
2023-01-02T03:07:22.893Z,5.50
2023-01-02T03:10:05.646Z,5.80
2023-01-02T03:12:42.128Z,5.90
2023-01-02T03:15:19.785Z,7.03
2023-01-02T03:18:00.715Z,6.13
2023-01-02T03:20:33.748Z,6.33
2023-01-02T03:23:06.316Z,5.80
2023-01-02T03:25:35.609Z,9.60
2023-01-02T03:28:08.534Z,8.33
2023-01-02T03:30:39.698Z,7.83
2023-01-02T03:33:14.653Z,7.53
2023-01-02T03:35:46.335Z,6.17
2023-01-02T03:38:18.522Z,6.57
2023-01-02T03:40:51.703Z,6.60
2023-01-02T03:43:23.817Z,8.10
2023-01-02T03:45:56.646Z,6.07
2023-01-02T03:48:34.944Z,6.13
2023-01-02T03:51:04.849Z,6.60
2023-01-02T03:53:35.319Z,6.87
2023-01-02T03:56:13.257Z,7.43
2023-01-02T03:58:48.672Z,6.40
2023-01-02T04:01:32.024Z,6.83
2023-01-02T04:04:06.839Z,7.27
2023-01-02T04:06:38.934Z,7.87
2023-01-02T04:09:11.160Z,5.83
2023-01-02T04:11:42.924Z,8.00
2023-01-02T04:14:16.697Z,9.57
2023-01-02T04:16:47.552Z,7.10
2023-01-02T04:19:22.757Z,6.60
2023-01-02T04:21:53.090Z,8.00
2023-01-02T04:24:25.923Z,8.57
2023-01-02T04:27:00.613Z,8.20
2023-01-02T04:29:29.201Z,6.50
2023-01-02T04:32:02.808Z,6.60
2023-01-02T04:34:36.334Z,9.33
2023-01-02T04:37:04.604Z,7.93
2023-01-02T04:39:34.657Z,7.30
2023-01-02T04:42:02.875Z,8.60
2023-01-02T04:44:31.079Z,7.80
2023-01-02T04:46:59.321Z,8.57
2023-01-02T04:49:27.878Z,8.57
2023-01-02T04:51:57.449Z,12.53
2023-01-02T04:54:25.642Z,7.70
2023-01-02T04:56:53.824Z,9.60
2023-01-02T04:59:22.010Z,10.67
2023-01-02T05:01:50.276Z,8.63
2023-01-02T05:04:18.598Z,15.07
2023-01-02T05:06:46.789Z,7.83
2023-01-02T05:09:17.235Z,10.03
2023-01-02T05:11:45.435Z,8.60
2023-01-02T05:14:13.633Z,8.63
2023-01-02T05:16:41.839Z,9.17
2023-01-02T05:19:10.063Z,9.53
2023-01-02T05:21:55.603Z,15.07
2023-01-02T05:24:26.643Z,8.43
2023-01-02T05:26:55.168Z,7.77
2023-01-02T05:29:23.445Z,8.43
2023-01-02T05:31:51.655Z,9.03
2023-01-02T05:34:19.830Z,11.67
2023-01-02T05:36:47.990Z,7.37
2023-01-02T05:39:16.173Z,10.67
2023-01-02T05:41:45.770Z,8.17
2023-01-02T05:44:14.041Z,8.53
2023-01-02T05:46:42.330Z,8.10
2023-01-02T05:49:12.048Z,6.47
2023-01-02T05:51:40.233Z,9.90
2023-01-02T05:54:09.099Z,9.30
2023-01-02T05:56:37.328Z,8.77
2023-01-02T05:59:09.726Z,7.70
2023-01-02T06:01:38.044Z,7.63
2023-01-02T06:04:06.476Z,9.80
2023-01-02T06:06:36.952Z,7.33
2023-01-02T06:09:05.822Z,7.07
2023-01-02T06:11:34.159Z,6.50
2023-01-02T06:14:02.512Z,6.27
2023-01-02T06:16:32.256Z,6.43
2023-01-02T06:19:00.483Z,5.43
2023-01-02T06:21:28.702Z,5.80
2023-01-02T06:23:58.215Z,7.93
2023-01-02T06:26:32.923Z,10.37
2023-01-02T06:29:03.714Z,10.53
2023-01-02T06:31:33.960Z,7.93
2023-01-02T06:34:03.937Z,11.63
2023-01-02T06:36:34.427Z,8.60
2023-01-02T06:39:02.805Z,8.13
2023-01-02T06:41:31.149Z,7.20
2023-01-02T06:43:59.327Z,7.03
2023-01-02T06:46:27.564Z,8.97
2023-01-02T06:48:57.188Z,8.37
2023-01-02T06:51:25.593Z,8.63
2023-01-02T06:53:53.923Z,6.73
2023-01-02T06:56:22.829Z,5.33
2023-01-02T06:58:51.060Z,9.17
2023-01-02T07:01:21.812Z,5.23
2023-01-02T07:03:50.434Z,5.87
2023-01-02T07:06:21.868Z,4.70
2023-01-02T07:08:50.447Z,7.07
2023-01-02T07:11:20.310Z,6.60
2023-01-02T07:13:49.930Z,5.77
2023-01-02T07:16:20.174Z,6.20
2023-01-02T07:18:48.812Z,8.47
2023-01-02T07:21:18.100Z,6.80
2023-01-02T07:23:47.806Z,9.30
2023-01-02T07:26:16.047Z,10.83
2023-01-02T07:28:44.484Z,7.83
2023-01-02T07:31:15.313Z,7.47
2023-01-02T07:33:43.643Z,6.00
2023-01-02T07:36:14.067Z,5.73
2023-01-02T07:38:42.269Z,6.30
2023-01-02T07:41:15.934Z,7.90
2023-01-02T07:43:45.381Z,6.10
2023-01-02T07:46:14.291Z,6.90
2023-01-02T07:48:42.702Z,8.20
2023-01-02T07:51:11.398Z,6.10
2023-01-02T07:53:41.699Z,9.77
2023-01-02T07:56:10.253Z,6.50
2023-01-02T07:58:39.989Z,8.67
2023-01-02T08:01:09.673Z,12.73
2023-01-02T08:03:38.361Z,8.30
2023-01-02T08:06:08.867Z,7.87
2023-01-02T08:08:37.943Z,7.03
2023-01-02T08:11:07.405Z,7.87
2023-01-02T08:13:36.246Z,7.60
2023-01-02T08:16:11.416Z,7.07
2023-01-02T08:18:39.802Z,6.13
2023-01-02T08:21:09.297Z,6.03
2023-01-02T08:23:37.900Z,7.47
2023-01-02T08:26:07.744Z,6.60
2023-01-02T08:28:36.913Z,7.40
2023-01-02T08:31:12.064Z,5.37
2023-01-02T08:33:40.917Z,5.93
2023-01-02T08:36:09.835Z,8.57
2023-01-02T08:38:38.214Z,8.97
2023-01-02T08:41:06.881Z,7.55
2023-01-02T08:43:36.698Z,9.67
2023-01-02T08:46:06.073Z,10.63
2023-01-02T08:48:36.496Z,8.25
2023-01-02T08:51:05.195Z,6.60
2023-01-02T08:53:33.591Z,7.03
2023-01-02T08:56:25.264Z,7.45
2023-01-02T08:58:54.961Z,8.00
2023-01-02T09:01:24.063Z,9.23
2023-01-02T09:03:54.135Z,7.75
2023-01-02T09:06:23.215Z,9.88
2023-01-02T09:08:53.329Z,8.43
2023-01-02T09:11:23.446Z,6.78
2023-01-02T09:13:51.771Z,8.65
2023-01-02T09:16:20.195Z,7.80
2023-01-02T09:18:48.476Z,8.05
2023-01-02T09:21:18.278Z,6.80
2023-01-02T09:23:46.478Z,7.95
2023-01-02T09:26:15.375Z,7.18
2023-01-02T09:28:43.662Z,8.07
2023-01-02T09:31:14.602Z,9.15
2023-01-02T09:33:44.330Z,8.27
2023-01-02T09:36:14.381Z,7.18
2023-01-02T09:38:44.182Z,8.40
2023-01-02T09:41:32.761Z,8.05
2023-01-02T09:44:06.589Z,6.32
2023-01-02T09:46:41.405Z,6.75
2023-01-02T09:49:14.325Z,6.75
2023-01-02T09:51:44.071Z,8.75
2023-01-02T09:54:20.671Z,8.40
2023-01-02T09:56:55.975Z,9.10
2023-01-02T09:59:33.247Z,7.57
2023-01-02T10:02:14.642Z,10.43
2023-01-02T10:05:02.289Z,8.60
2023-01-02T10:07:38.972Z,8.93
2023-01-02T10:10:15.327Z,7.70
2023-01-02T10:12:53.719Z,8.18
2023-01-02T10:15:28.004Z,6.65
2023-01-02T10:18:00.686Z,7.78
2023-01-02T10:20:34.019Z,7.18
2023-01-02T10:23:05.372Z,6.60
2023-01-02T10:25:40.017Z,7.15
2023-01-02T10:28:18.569Z,8.77
2023-01-02T10:30:53.912Z,7.88
2023-01-02T10:33:27.928Z,6.10
2023-01-02T10:36:01.210Z,7.60
2023-01-02T10:38:35.684Z,8.35
2023-01-02T10:41:06.350Z,6.35
2023-01-02T10:43:37.142Z,9.00
2023-01-02T10:46:06.376Z,7.65
2023-01-02T10:48:38.087Z,6.82
2023-01-02T10:51:12.787Z,8.20
2023-01-02T10:53:41.180Z,7.15
2023-01-02T10:56:18.697Z,8.15
2023-01-02T10:58:48.959Z,7.07
2023-01-02T11:01:19.509Z,7.07
2023-01-02T11:03:48.628Z,7.53
2023-01-02T11:06:35.244Z,7.35
2023-01-02T11:09:21.410Z,8.35
2023-01-02T11:11:55.635Z,6.70
2023-01-02T11:14:28.266Z,6.78
2023-01-02T11:17:03.993Z,8.82
2023-01-02T11:19:32.939Z,7.63
2023-01-02T11:22:01.295Z,8.35
2023-01-02T11:24:30.041Z,8.18
2023-01-02T11:27:03.671Z,7.15
2023-01-02T11:29:34.860Z,8.82
2023-01-02T11:32:05.137Z,7.90
2023-01-02T11:34:37.209Z,7.85
2023-01-02T11:37:16.009Z,9.45
2023-01-02T11:39:57.621Z,8.63
2023-01-02T11:42:50.974Z,9.68
2023-01-02T11:45:20.854Z,10.27
2023-01-02T11:47:51.284Z,10.50
2023-01-02T11:50:24.297Z,7.93
2023-01-02T11:52:58.933Z,8.65
2023-01-02T11:55:38.279Z,7.90
2023-01-02T11:58:19.712Z,8.48
2023-01-02T12:00:50.716Z,9.25
2023-01-02T12:03:23.274Z,7.63
2023-01-02T12:06:03.090Z,8.13
2023-01-02T12:08:44.797Z,10.48
2023-01-02T12:11:29.723Z,11.13
2023-01-02T12:14:10.828Z,11.25
2023-01-02T12:16:52.297Z,9.40
2023-01-02T12:19:42.761Z,10.35
2023-01-02T12:22:28.596Z,9.13
2023-01-02T12:25:24.467Z,9.18
2023-01-02T12:27:59.876Z,8.40
2023-01-02T12:30:34.300Z,11.32
2023-01-02T12:33:25.659Z,7.35
2023-01-02T12:36:21.052Z,7.53
2023-01-02T12:39:10.803Z,9.10
2023-01-02T12:42:01.498Z,7.72
2023-01-02T12:44:45.368Z,8.05
2023-01-02T12:47:28.157Z,8.07
2023-01-02T12:50:24.466Z,7.32
2023-01-02T12:53:04.513Z,10.98
2023-01-02T12:55:42.909Z,9.75
2023-01-02T12:58:26.023Z,8.13
2023-01-02T13:01:01.567Z,11.45
2023-01-02T13:04:05.302Z,9.75
2023-01-02T13:06:47.334Z,10.77
2023-01-02T13:09:23.310Z,8.52
2023-01-02T13:11:57.724Z,7.38
2023-01-02T13:14:34.020Z,8.82
2023-01-02T13:17:24.061Z,7.95
2023-01-02T13:19:57.910Z,10.02
2023-01-02T13:22:38.512Z,8.20
2023-01-02T13:25:13.535Z,7.75
2023-01-02T13:27:42.383Z,10.10
2023-01-02T13:30:38.560Z,8.23
2023-01-02T13:33:23.147Z,7.47
2023-01-02T13:35:52.044Z,8.43
2023-01-02T13:38:24.067Z,7.47
2023-01-02T13:40:57.073Z,9.82
2023-01-02T13:43:30.038Z,8.93
2023-01-02T13:45:59.320Z,8.10
2023-01-02T13:48:33.128Z,9.40
2023-01-02T13:51:03.756Z,8.40
2023-01-02T13:53:38.775Z,9.20
2023-01-02T13:56:10.401Z,7.43
2023-01-02T13:58:50.494Z,9.75
2023-01-02T14:02:03.841Z,9.40
2023-01-02T14:04:40.601Z,19.50
2023-01-02T14:07:45.852Z,15.55
2023-01-02T14:10:34.873Z,14.48
2023-01-02T14:13:20.429Z,11.80
2023-01-02T14:16:30.336Z,8.95
2023-01-02T14:19:21.108Z,8.70
2023-01-02T14:21:52.609Z,10.40
2023-01-02T14:24:38.569Z,11.55
2023-01-02T14:27:18.551Z,20.77
2023-01-02T14:29:53.176Z,11.85
2023-01-02T14:32:25.699Z,11.63
2023-01-02T14:34:56.683Z,19.65
2023-01-02T14:37:30.850Z,14.27
2023-01-02T14:40:11.854Z,46.25
2023-01-02T14:43:00.392Z,30.77
2023-01-02T14:45:31.333Z,31.88
2023-01-02T14:48:07.695Z,30.25
2023-01-02T14:50:37.177Z,18.38
2023-01-02T14:53:10.546Z,19.30
2023-01-02T14:55:42.175Z,13.75
2023-01-02T14:58:20.896Z,6.13
2023-01-02T15:00:50.179Z,8.65
2023-01-02T15:03:24.827Z,8.38
2023-01-02T15:06:00.465Z,14.75
2023-01-02T15:08:36.829Z,11.45
2023-01-02T15:11:32.843Z,9.93
2023-01-02T15:14:05.696Z,7.93
2023-01-02T15:16:42.540Z,6.55
2023-01-02T15:19:18.742Z,5.25
2023-01-02T15:21:47.087Z,8.13
2023-01-02T15:24:21.884Z,8.80
2023-01-02T15:26:50.640Z,6.95
2023-01-02T15:29:26.292Z,17.27
2023-01-02T15:31:56.536Z,7.47
2023-01-02T15:34:32.250Z,8.55
2023-01-02T15:37:04.848Z,7.22
2023-01-02T15:39:37.886Z,9.15
2023-01-02T15:42:26.989Z,12.25
2023-01-02T15:45:11.198Z,7.47
2023-01-02T15:47:41.463Z,9.88
2023-01-02T15:50:16.685Z,6.65
2023-01-02T15:52:47.681Z,18.70
2023-01-02T15:55:18.145Z,19.45
2023-01-02T15:57:53.341Z,10.82
2023-01-02T16:00:36.396Z,12.32
2023-01-02T16:03:05.302Z,6.53
2023-01-02T16:05:47.080Z,13.82
2023-01-02T16:08:20.806Z,10.77
2023-01-02T16:10:51.536Z,8.35
2023-01-02T16:13:44.021Z,7.47
2023-01-02T16:16:15.902Z,5.97
2023-01-02T16:18:48.837Z,22.67
2023-01-02T16:21:18.275Z,8.63
2023-01-02T16:23:51.054Z,5.85
2023-01-02T16:26:19.807Z,3.60
2023-01-02T16:28:51.472Z,4.28
2023-01-02T16:31:22.867Z,7.63
2023-01-02T16:33:51.468Z,5.93
2023-01-02T16:36:24.584Z,4.70
2023-01-02T16:38:54.794Z,3.30
2023-01-02T16:42:16.353Z,6.15
2023-01-02T16:44:54.083Z,6.72
2023-01-02T16:47:24.979Z,6.00
2023-01-02T16:49:53.330Z,4.13
2023-01-02T16:52:21.537Z,5.85
2023-01-02T16:54:54.116Z,7.00
2023-01-02T16:57:24.056Z,9.98
2023-01-02T16:59:52.260Z,5.65
2023-01-02T17:02:20.608Z,8.32
2023-01-02T17:04:50.301Z,8.32
2023-01-02T17:07:22.113Z,5.95
2023-01-02T17:09:51.011Z,6.25
2023-01-02T17:12:19.257Z,6.57
2023-01-02T17:14:47.403Z,4.47
2023-01-02T17:17:15.616Z,8.75
2023-01-02T17:19:43.810Z,7.30
2023-01-02T17:22:13.424Z,6.47
2023-01-02T17:24:41.676Z,7.18
2023-01-02T17:27:09.987Z,9.05
2023-01-02T17:29:38.201Z,3.90
2023-01-02T17:32:06.542Z,9.38
2023-01-02T17:34:34.781Z,9.82
2023-01-02T17:37:02.960Z,3.17
2023-01-02T17:39:32.804Z,8.98
2023-01-02T17:42:01.087Z,4.25
2023-01-02T17:44:29.283Z,5.45
2023-01-02T17:49:45.824Z,5.43
2023-01-02T17:52:14.159Z,5.88
2023-01-02T17:54:43.773Z,5.20
2023-01-02T17:57:12.213Z,4.00
2023-01-02T17:59:42.173Z,4.53
2023-01-02T18:02:14.574Z,3.05
2023-01-02T18:04:47.024Z,4.65
2023-01-02T18:07:20.925Z,5.50
2023-01-02T18:10:08.691Z,7.05
2023-01-02T18:12:38.411Z,5.63
2023-01-02T18:15:13.871Z,8.60
2023-01-02T18:17:42.807Z,6.72
2023-01-02T18:20:13.917Z,3.05
2023-01-02T18:22:48.856Z,2.83
2023-01-02T18:25:24.538Z,8.85
2023-01-02T18:28:02.156Z,3.88
2023-01-02T18:30:30.465Z,3.13
2023-01-02T18:33:04.987Z,6.57
2023-01-02T18:38:30.039Z,5.25
2023-01-02T18:41:00.208Z,5.32
2023-01-02T18:43:35.797Z,3.13
2023-01-02T18:46:13.172Z,3.80
2023-01-02T18:48:41.611Z,5.45
2023-01-02T18:51:16.913Z,8.32
2023-01-02T18:53:48.127Z,5.28
2023-01-02T18:56:20.359Z,5.35
2023-01-02T18:58:54.810Z,4.35
2023-01-02T19:01:29.212Z,5.07
2023-01-02T19:04:22.461Z,5.38
2023-01-02T19:06:57.348Z,5.05
2023-01-02T19:09:31.192Z,3.33
2023-01-02T19:12:22.091Z,4.38
2023-01-02T19:14:57.094Z,7.07
2023-01-02T19:17:28.053Z,3.60
2023-01-02T19:19:56.976Z,4.65
2023-01-02T19:22:30.089Z,3.72
2023-01-02T19:25:05.255Z,5.20
2023-01-02T19:27:38.206Z,3.05
2023-01-02T19:30:24.316Z,2.85
2023-01-02T19:32:52.583Z,2.88
2023-01-02T19:35:55.341Z,5.28
2023-01-02T19:38:28.181Z,3.45
2023-01-02T19:40:56.916Z,3.92
2023-01-02T19:43:26.616Z,1.73
2023-01-02T19:45:55.216Z,3.00
2023-01-02T19:48:23.493Z,2.80
2023-01-02T19:50:51.812Z,2.13
2023-01-02T19:53:20.707Z,3.85
2023-01-02T19:55:48.927Z,4.32
2023-01-02T19:58:17.522Z,2.75
2023-01-02T20:00:47.132Z,2.97
2023-01-02T20:03:15.365Z,2.40
2023-01-02T20:05:43.659Z,1.42
2023-01-02T20:08:12.098Z,3.35
2023-01-02T20:10:40.309Z,2.35
2023-01-02T20:13:08.586Z,3.25
2023-01-02T20:15:36.876Z,2.20
2023-01-02T20:18:08.879Z,3.03
2023-01-02T20:20:37.523Z,2.15
2023-01-02T20:23:05.689Z,4.55
2023-01-02T20:25:34.669Z,1.88
2023-01-02T20:28:03.423Z,7.38
2023-01-02T20:30:31.963Z,4.03
2023-01-02T20:33:00.229Z,5.45
2023-01-02T20:35:29.980Z,5.93
2023-01-02T20:37:58.534Z,3.92
2023-01-02T20:40:28.707Z,9.55
2023-01-02T20:42:56.952Z,3.75
2023-01-02T20:45:25.143Z,2.33
2023-01-02T20:47:53.315Z,2.10
2023-01-02T20:50:22.086Z,3.78
2023-01-02T20:52:56.730Z,2.42
2023-01-02T20:55:26.521Z,4.38
2023-01-02T20:57:54.794Z,3.60
2023-01-02T21:00:23.073Z,6.55
2023-01-02T21:02:52.112Z,4.00
2023-01-02T21:05:20.508Z,7.72
2023-01-02T21:07:48.770Z,3.30
2023-01-02T21:10:18.668Z,2.55
2023-01-02T21:13:04.201Z,3.35
2023-01-02T21:15:46.044Z,3.30
2023-01-02T21:18:18.327Z,3.53
2023-01-02T21:20:48.916Z,1.50
2023-01-02T21:23:17.547Z,3.47
2023-01-02T21:25:47.549Z,3.95
2023-01-02T21:28:17.060Z,3.20
2023-01-02T21:30:45.852Z,2.22
2023-01-02T21:33:15.976Z,3.63
2023-01-02T21:35:46.053Z,2.90
2023-01-02T21:38:15.227Z,4.20
2023-01-02T21:40:43.607Z,2.88
2023-01-02T21:43:13.316Z,1.70
2023-01-02T21:45:42.001Z,3.00
2023-01-02T21:48:10.293Z,2.50
2023-01-02T21:50:38.564Z,2.28
2023-01-02T21:53:07.448Z,3.05
2023-01-02T21:55:35.668Z,1.55
2023-01-02T21:58:13.462Z,1.92
2023-01-02T22:00:44.206Z,3.83
2023-01-02T22:03:13.268Z,3.03
2023-01-02T22:05:41.798Z,2.28
2023-01-02T22:08:10.088Z,3.38
2023-01-02T22:10:38.695Z,2.97
2023-01-02T22:13:06.844Z,2.92
2023-01-02T22:15:35.006Z,2.63
2023-01-02T22:18:04.731Z,3.95
2023-01-02T22:20:33.402Z,4.28
2023-01-02T22:23:01.596Z,3.85
2023-01-02T22:25:30.073Z,2.85
2023-01-02T22:27:58.433Z,3.75
2023-01-02T22:30:33.913Z,2.03
2023-01-02T22:33:04.684Z,2.05
2023-01-02T22:35:33.628Z,2.67
2023-01-02T22:38:01.852Z,2.45
2023-01-02T22:40:30.336Z,3.53
2023-01-02T22:43:04.528Z,3.38
2023-01-02T22:45:36.767Z,4.82
2023-01-02T22:48:14.802Z,4.22
2023-01-02T22:50:45.722Z,3.10
2023-01-02T22:53:23.154Z,3.30
2023-01-02T22:55:51.798Z,2.47
2023-01-02T22:58:20.841Z,3.67
2023-01-02T23:00:54.792Z,3.28
2023-01-02T23:03:24.574Z,8.55
2023-01-02T23:05:53.012Z,4.82
2023-01-02T23:08:22.089Z,5.30
2023-01-02T23:10:50.407Z,4.32
2023-01-02T23:13:20.281Z,4.25
2023-01-02T23:16:06.163Z,3.38
2023-01-02T23:18:56.446Z,4.35
2023-01-02T23:21:26.393Z,4.88
2023-01-02T23:23:55.219Z,3.65
2023-01-02T23:26:25.956Z,3.58
2023-01-02T23:29:10.244Z,2.05
2023-01-02T23:31:41.172Z,6.30
2023-01-02T23:34:12.635Z,2.83
2023-01-02T23:36:41.688Z,3.63
2023-01-02T23:39:13.070Z,4.32
2023-01-02T23:41:41.758Z,4.97
2023-01-02T23:44:10.695Z,4.82
2023-01-02T23:46:39.457Z,4.75
2023-01-02T23:49:12.284Z,4.22
2023-01-02T23:51:41.445Z,4.32
2023-01-02T23:54:17.640Z,1.77
2023-01-02T23:56:48.588Z,2.58
2023-01-02T23:59:19.378Z,3.17
